CheckWX is a tool to help pilots better visualize weather data.  It is not intended as a substitute for an official pre-flight weather briefing.

10:24:46 UTC

LFPT METAR
Pontoise - Cormeilles-en-Vexin Airport
Pontoise, France
Current

25 mins ago

LFPT 041000Z AUTO 24009KT 210V270 9999 OVC026/// 19/13 Q1019
Observed
Jul-4 @ 10:00 UTC
Wind
  • 240° at 9 KTS
Visibility
10,000+ meters
Flight Rules
MVFR
Cloud Levels
  • Overcast at 2,600' AGL
Temperature
19°C / 66°F
Dewpoint
13°C / 55°F
Humidity
68%
Altimeter
30.09" Hg
Pressure
1018.92 hPa
Previous

55 mins ago

LFPT 040930Z AUTO 23010KT 9999 OVC026/// 19/13 Q1018
Observed
Jul-4 @ 09:30 UTC
Wind
  • 230° at 10 KTS
Visibility
10,000+ meters
Flight Rules
MVFR
Cloud Levels
  • Overcast at 2,600' AGL
Temperature
19°C / 66°F
Dewpoint
13°C / 55°F
Humidity
68%
Altimeter
30.06" Hg
Pressure
1017.92 hPa
Previous

1 hour ago

LFPT 040900Z AUTO 23012KT 9999 BKN028/// BKN034/// BKN040/// 19/12 Q1018
Observed
Jul-4 @ 09:00 UTC
Wind
  • 230° at 12 KTS
Visibility
10,000+ meters
Flight Rules
MVFR
Cloud Levels
  • Broken at 2,800' AGL
  • Broken at 3,400' AGL
  • Broken at 4,000' AGL
Temperature
19°C / 66°F
Dewpoint
12°C / 54°F
Humidity
64%
Altimeter
30.06" Hg
Pressure
1017.92 hPa